Time;durP1;ratioP1;P1;durP2;ratioP2;P2;SDS_P1;SDS_P2;PMS_P1;PMS_P2;Temp;Humidity;BMP_temperature;BMP_pressure;BME280_temperature;BME280_humidity;BME280_pressure;Samples;Min_cycle;Max_cycle;Signal;HPM_P1;HPM_P2
2022/12/27 00:01:53;;;;;;;9.40;2.53;;;;;;;;;;5072322;28;20086;-64
2022/12/27 00:04:19;;;;;;;8.80;2.92;;;;;;;;;;5088687;28;20065;-64
2022/12/27 00:06:45;;;;;;;7.28;1.95;;;;;;;;;;5088718;28;20046;-64
2022/12/27 00:09:11;;;;;;;8.65;2.45;;;4.50;99.90;;;;;;5071859;28;20431;-64
2022/12/27 00:11:38;;;;;;;13.68;2.88;;;;;;;;;;5088553;28;20044;-64
2022/12/27 00:14:05;;;;;;;8.73;2.35;;;;;;;;;;5088746;28;20047;-64
2022/12/27 00:16:31;;;;;;;11.43;2.40;;;;;;;;;;5074503;28;20071;-65
2022/12/27 00:18:57;;;;;;;10.23;2.38;;;;;;;;;;5090735;28;20552;-64
2022/12/27 00:21:23;;;;;;;14.95;3.50;;;4.60;99.90;;;;;;5107807;28;20100;-64
2022/12/27 00:23:51;;;;;;;10.05;1.98;;;;;;;;;;5108857;28;20054;-64
2022/12/27 00:26:39;;;;;;;5.95;2.15;;;4.70;99.90;;;;;;5108632;28;20404;-64
2022/12/27 00:29:05;;;;;;;13.75;3.15;;;;;;;;;;5073542;28;20048;-63
2022/12/27 00:31:32;;;;;;;7.97;2.17;;;4.50;99.90;;;;;;5090051;28;20058;-64
2022/12/27 00:34:00;;;;;;;6.35;2.00;;;;;;;;;;5090292;28;20054;-63
2022/12/27 00:36:26;;;;;;;9.40;2.97;;;;;;;;;;5108817;28;20047;-64
2022/12/27 00:38:52;;;;;;;8.18;2.05;;;;;;;;;;5108648;28;20048;-64
2022/12/27 00:41:19;;;;;;;12.25;2.40;;;4.40;99.90;;;;;;5108867;28;20047;-63
2022/12/27 00:43:45;;;;;;;14.98;2.72;;;;;;;;;;5107211;28;20047;-64
2022/12/27 00:46:11;;;;;;;8.85;2.42;;;;;;;;;;5090475;28;20123;-64
2022/12/27 00:48:37;;;;;;;6.65;2.67;;;4.30;99.90;;;;;;5108491;28;20054;-64
2022/12/27 00:51:08;;;;;;;10.48;2.40;;;;;;;;;;5108601;28;20043;-63
2022/12/27 00:53:35;;;;;;;7.78;2.22;;;;;;;;;;5089691;28;20040;-63
2022/12/27 00:56:05;;;;;;;9.55;2.58;;;;;;;;;;5090063;28;20064;-63
2022/12/27 00:58:31;;;;;;;9.60;2.15;;;;;;;;;;5089861;28;20143;-63
2022/12/27 01:01:09;;;;;;;10.82;3.80;;;4.50;99.90;;;;;;5108423;28;20118;-63
2022/12/27 01:03:35;;;;;;;9.00;2.45;;;;;;;;;;5108461;28;20040;-64
2022/12/27 01:06:05;;;;;;;12.05;2.53;;;;;;;;;;5108067;28;20510;-64
2022/12/27 01:08:31;;;;;;;11.70;2.10;;;;;;;;;;5089587;28;20044;-64
2022/12/27 01:10:58;;;;;;;8.10;2.65;;;;;;;;;;5108404;28;20093;-64
2022/12/27 01:13:24;;;;;;;8.30;2.60;;;;;;;;;;5108304;28;20043;-64
2022/12/27 01:15:50;;;;;;;9.15;2.80;;;;;;;;;;5077518;28;20097;-64
2022/12/27 01:18:16;;;;;;;10.60;3.05;;;;;;;;;;5106770;28;20039;-63
2022/12/27 01:20:42;;;;;;;9.73;2.60;;;;;;;;;;5088579;28;20115;-63
2022/12/27 01:23:07;;;;;;;10.80;2.42;;;;;;;;;;5089845;28;20054;-64
2022/12/27 01:25:33;;;;;;;10.63;2.83;;;4.20;99.90;;;;;;5108469;28;20405;-63
2022/12/27 01:27:59;;;;;;;8.13;2.20;;;;;;;;;;5107927;28;20040;-63
2022/12/27 01:30:25;;;;;;;10.25;3.55;;;;;;;;;;5108270;28;20043;-63
2022/12/27 01:32:51;;;;;;;9.57;2.70;;;;;;;;;;5107916;28;20478;-63
2022/12/27 01:35:17;;;;;;;11.82;2.65;;;;;;;;;;5107912;28;20106;-64
2022/12/27 01:37:43;;;;;;;7.63;2.97;;;;;;;;;;5089586;28;20528;-64
2022/12/27 01:40:09;;;;;;;13.05;3.03;;;;;;;;;;5089714;28;20039;-64
2022/12/27 01:42:54;;;;;;;11.88;3.13;;;;;;;;;;5108349;28;20527;-63
2022/12/27 01:45:20;;;;;;;9.02;3.08;;;;;;;;;;5107846;28;20044;-63
2022/12/27 01:47:57;;;;;;;13.88;2.75;;;4.00;99.90;;;;;;5089152;28;20120;-63
2022/12/27 01:50:26;;;;;;;11.90;3.10;;;;;;;;;;5089264;28;20078;-63
2022/12/27 01:53:05;;;;;;;11.10;2.90;;;;;;;;;;5089267;28;20112;-62
2022/12/27 01:55:33;;;;;;;12.48;2.15;;;;;;;;;;5089372;28;20503;-63
2022/12/27 01:58:11;;;;;;;11.57;2.38;;;;;;;;;;5089231;28;20374;-63
2022/12/27 02:00:37;;;;;;;11.13;3.05;;;;;;;;;;5089042;28;20044;-64
2022/12/27 02:03:04;;;;;;;10.27;2.25;;;;;;;;;;5107626;28;20474;-63
2022/12/27 02:05:30;;;;;;;9.48;2.10;;;;;;;;;;5088550;28;20074;-64
2022/12/27 02:08:08;;;;;;;5.45;2.58;;;;;;;;;;5107276;28;20039;-63
2022/12/27 02:10:34;;;;;;;9.32;2.30;;;4.40;99.90;;;;;;5107427;28;20080;-64
2022/12/27 02:13:00;;;;;;;10.75;2.70;;;;;;;;;;5107283;28;20043;-64
2022/12/27 02:15:26;;;;;;;10.65;2.25;;;;;;;;;;5080031;28;20508;-63
2022/12/27 02:17:52;;;;;;;8.75;2.05;;;;;;;;;;5102439;28;20074;-63
2022/12/27 02:20:22;;;;;;;9.38;1.83;;;;;;;;;;5087300;28;20043;-63
2022/12/27 02:26:23;;;;;;;8.13;2.05;;;4.70;99.90;;;;;;5089197;28;20047;-63
2022/12/27 02:29:27;;;;;;;14.90;1.65;;;;;;;;;;5063121;28;20508;-63
2022/12/27 02:31:58;;;;;;;9.57;2.55;;;;;;;;;;5007100;28;20058;-64
2022/12/27 02:34:26;;;;;;;11.45;1.85;;;;;;;;;;5007823;28;20105;-65
2022/12/27 02:36:56;;;;;;;12.65;2.33;;;;;;;;;;5049580;28;20130;-64
2022/12/27 02:39:22;;;;;;;7.43;2.35;;;;;;;;;;5107177;28;20160;-64
2022/12/27 02:53:02;;;;;;;10.55;2.80;;;;;;;;;;5083036;28;20044;-64
2022/12/27 02:58:38;;;;;;;15.63;2.35;;;;;;;;;;5088427;28;20049;-64
2022/12/27 03:04:19;;;;;;;6.53;2.35;;;;;;;;;;5088543;28;20048;-64
2022/12/27 03:06:58;;;;;;;16.98;2.67;;;;;;;;;;5107046;28;20044;-64
2022/12/27 03:18:05;;;;;;;9.50;2.47;;;;;;;;;;5087964;28;20081;-63
2022/12/27 03:26:03;;;;;;;12.82;2.50;;;;;;;;;;5089742;28;20044;-64
2022/12/27 03:39:46;;;;;;;17.40;3.33;;;4.70;99.90;;;;;;5071892;28;20716;-64
2022/12/27 03:45:04;;;;;;;5.50;1.90;;;;;;;;;;5071601;28;20051;-64
2022/12/27 03:47:42;;;;;;;9.45;2.08;;;4.70;99.90;;;;;;5089572;28;20130;-64
2022/12/27 03:50:20;;;;;;;8.90;2.22;;;;;;;;;;5089945;28;20054;-63
2022/12/27 03:52:58;;;;;;;10.20;2.17;;;;;;;;;;5058283;28;20062;-64
2022/12/27 03:55:24;;;;;;;8.23;1.88;;;;;;;;;;5071214;28;20048;-64
2022/12/27 03:57:50;;;;;;;9.48;2.35;;;;;;;;;;5089320;28;20563;-65
2022/12/27 04:00:16;;;;;;;8.45;2.97;;;4.70;99.90;;;;;;5071254;28;20123;-65
2022/12/27 04:02:42;;;;;;;12.38;2.20;;;4.80;99.90;;;;;;5071185;28;20115;-65
2022/12/27 04:05:08;;;;;;;7.30;2.50;;;;;;;;;;5071452;28;20512;-65
2022/12/27 04:07:34;;;;;;;9.57;1.83;;;;;;;;;;5089019;28;20048;-64
2022/12/27 04:34:42;;;;;;;8.50;2.20;;;;;;;;;;5082519;28;20274;-63
2022/12/27 04:37:09;;;;;;;8.63;2.38;;;;;;;;;;5069916;28;20040;-64
2022/12/27 04:39:35;;;;;;;12.02;2.30;;;;;;;;;;5070089;28;20450;-64
2022/12/27 04:55:56;;;;;;;11.70;2.33;;;;;;;;;;5088160;28;20127;-64
2022/12/27 04:58:22;;;;;;;12.13;2.45;;;;;;;;;;5088198;28;20120;-64
2022/12/27 05:03:33;;;;;;;7.60;2.47;;;4.40;99.90;;;;;;5079299;28;20138;-63
2022/12/27 05:05:59;;;;;;;6.22;1.98;;;;;;;;;;5088091;28;20050;-63
2022/12/27 05:14:01;;;;;;;12.23;2.50;;;;;;;;;;5083257;28;20043;-63
2022/12/27 05:16:31;;;;;;;11.27;2.00;;;;;;;;;;5081902;28;20048;-64
2022/12/27 05:18:58;;;;;;;11.02;2.33;;;;;;;;;;5087278;28;20397;-65
2022/12/27 05:21:24;;;;;;;10.13;2.30;;;4.30;99.90;;;;;;5074392;28;20052;-65
2022/12/27 05:26:36;;;;;;;9.82;2.13;;;;;;;;;;5076202;28;20043;-64
2022/12/27 05:29:02;;;;;;;9.27;2.42;;;;;;;;;;5087356;28;20052;-63
2022/12/27 05:31:28;;;;;;;7.53;2.83;;;;;;;;;;5072133;28;20803;-64
2022/12/27 05:33:54;;;;;;;12.68;3.85;;;;;;;;;;5087776;28;20169;-64
2022/12/27 05:36:20;;;;;;;11.63;2.83;;;;;;;;;;5069641;28;20499;-63
2022/12/27 05:38:47;;;;;;;14.45;2.95;;;;;;;;;;5062018;28;20043;-63
2022/12/27 05:41:13;;;;;;;15.55;3.53;;;;;;;;;;5068883;28;20044;-63
2022/12/27 05:43:39;;;;;;;8.13;2.85;;;;;;;;;;5087112;28;20043;-64
2022/12/27 05:46:14;;;;;;;8.27;2.22;;;4.60;99.90;;;;;;5069248;28;20048;-63
2022/12/27 05:48:40;;;;;;;15.30;2.90;;;4.60;99.90;;;;;;5087083;28;20107;-63
2022/12/27 05:51:13;;;;;;;10.13;3.17;;;;;;;;;;5069119;28;20052;-63
2022/12/27 05:53:39;;;;;;;11.52;2.58;;;4.60;99.90;;;;;;5068858;28;20047;-64
2022/12/27 05:56:06;;;;;;;8.13;2.50;;;;;;;;;;5087166;28;20574;-64
2022/12/27 05:58:31;;;;;;;13.13;3.97;;;;;;;;;;5071995;28;20092;-64
2022/12/27 06:01:00;;;;;;;9.75;2.42;;;4.60;99.90;;;;;;5102875;28;20043;-63
2022/12/27 06:03:26;;;;;;;11.27;3.30;;;;;;;;;;5105099;28;20551;-65
2022/12/27 06:05:58;;;;;;;8.57;2.50;;;4.80;99.90;;;;;;5087860;28;20067;-65
2022/12/27 06:08:24;;;;;;;9.57;2.28;;;;;;;;;;5083924;28;20085;-64
2022/12/27 06:10:52;;;;;;;9.23;2.40;;;;;;;;;;5084638;28;20040;-63
2022/12/27 06:13:18;;;;;;;13.85;3.25;;;;;;;;;;5076880;28;20040;-63
2022/12/27 06:15:44;;;;;;;7.53;2.40;;;;;;;;;;5084377;28;20042;-63
2022/12/27 06:18:10;;;;;;;11.27;2.20;;;;;;;;;;5084602;28;20047;-64
2022/12/27 06:20:36;;;;;;;11.55;2.28;;;;;;;;;;5086895;28;20043;-63
2022/12/27 06:23:02;;;;;;;13.98;2.42;;;;;;;;;;5101078;28;20923;-64
2022/12/27 06:25:28;;;;;;;12.77;2.33;;;;;;;;;;5070276;28;20071;-64
2022/12/27 06:27:54;;;;;;;14.30;2.92;;;;;;;;;;5066442;28;20048;-64
2022/12/27 06:30:20;;;;;;;10.25;2.83;;;;;;;;;;5092061;28;20116;-64
2022/12/27 06:32:46;;;;;;;9.65;2.50;;;4.40;99.90;;;;;;5099719;28;20451;-64
2022/12/27 06:35:12;;;;;;;7.72;2.42;;;;;;;;;;5092790;28;20081;-65
2022/12/27 06:37:38;;;;;;;10.00;3.17;;;;;;;;;;5085812;28;20052;-63
2022/12/27 06:40:04;;;;;;;11.63;2.70;;;4.10;99.90;;;;;;5085442;28;20083;-63
2022/12/27 06:42:30;;;;;;;13.82;2.35;;;;;;;;;;5077851;28;20062;-65
2022/12/27 06:44:56;;;;;;;10.48;2.47;;;;;;;;;;5062551;28;20048;-63
2022/12/27 06:47:22;;;;;;;9.02;1.85;;;;;;;;;;5062096;28;20125;-63
2022/12/27 06:49:48;;;;;;;6.63;1.70;;;;;;;;;;5067039;28;20054;-61
2022/12/27 06:52:14;;;;;;;9.00;1.92;;;;;;;;;;5068408;28;20051;-64
2022/12/27 06:54:40;;;;;;;11.68;2.00;;;;;;;;;;5085777;28;20448;-64
2022/12/27 06:57:06;;;;;;;8.25;1.85;;;;;;;;;;5092210;28;20058;-63
2022/12/27 06:59:32;;;;;;;9.40;2.20;;;;;;;;;;5076906;28;20040;-64
2022/12/27 07:01:58;;;;;;;13.52;3.08;;;;;;;;;;5082357;28;20172;-64
2022/12/27 07:04:24;;;;;;;9.57;2.20;;;;;;;;;;5098682;28;20040;-63
2022/12/27 07:06:50;;;;;;;10.77;3.78;;;;;;;;;;5088902;28;20028;-64
2022/12/27 07:09:16;;;;;;;9.95;2.35;;;;;;;;;;5087152;28;20068;-64
2022/12/27 07:11:44;;;;;;;10.57;2.33;;;;;;;;;;5100271;28;20050;-65
2022/12/27 07:14:10;;;;;;;11.07;2.15;;;;;;;;;;5077599;28;20478;-62
2022/12/27 07:16:36;;;;;;;11.68;2.55;;;;;;;;;;5087795;28;20093;-62
2022/12/27 07:19:03;;;;;;;15.98;3.28;;;;;;;;;;5082555;28;20478;-59
2022/12/27 07:21:29;;;;;;;12.70;2.47;;;;;;;;;;5087734;28;20139;-61
2022/12/27 07:23:55;;;;;;;14.02;3.28;;;3.80;99.90;;;;;;5097617;28;20047;-63
2022/12/27 07:26:22;;;;;;;10.30;3.63;;;;;;;;;;5098720;28;20044;-62
2022/12/27 07:28:48;;;;;;;12.07;2.05;;;;;;;;;;5079892;28;20039;-63
2022/12/27 07:31:19;;;;;;;13.63;3.35;;;;;;;;;;5086614;28;20414;-62
2022/12/27 07:33:45;;;;;;;4.85;2.05;;;;;;;;;;5085515;28;20126;-62
2022/12/27 07:36:15;;;;;;;13.75;2.83;;;;;;;;;;5086842;28;20044;-67
2022/12/27 07:38:42;;;;;;;12.80;3.00;;;;;;;;;;5064900;28;20082;-62
2022/12/27 07:41:09;;;;;;;8.20;2.95;;;;;;;;;;5068949;28;20482;-63
2022/12/27 07:43:35;;;;;;;14.20;2.85;;;3.80;99.90;;;;;;5073836;28;20040;-62
2022/12/27 07:46:05;;;;;;;8.57;2.45;;;;;;;;;;5090868;28;20043;-63
2022/12/27 07:48:31;;;;;;;11.13;2.97;;;;;;;;;;5074356;28;20070;-63
2022/12/27 07:50:58;;;;;;;9.75;2.03;;;;;;;;;;5095967;28;20480;-65
2022/12/27 07:53:23;;;;;;;11.00;2.30;;;;;;;;;;5071600;28;20052;-65
2022/12/27 07:55:50;;;;;;;9.73;1.92;;;;;;;;;;5073947;28;20044;-63
2022/12/27 07:58:16;;;;;;;9.93;2.47;;;;;;;;;;5085332;28;20162;-62
2022/12/27 08:00:43;;;;;;;12.25;2.53;;;;;;;;;;5068751;28;20051;-64
2022/12/27 08:03:08;;;;;;;10.70;2.88;;;;;;;;;;5061454;28;20048;-65
2022/12/27 08:05:34;;;;;;;10.25;1.90;;;;;;;;;;5064857;28;20071;-60
2022/12/27 08:08:01;;;;;;;5.80;1.67;;;;;;;;;;5085667;28;20048;-65
2022/12/27 08:10:27;;;;;;;6.28;1.80;;;;;;;;;;5065706;28;20044;-63
2022/12/27 08:12:53;;;;;;;11.75;1.98;;;;;;;;;;5083778;28;20032;-64
2022/12/27 08:15:20;;;;;;;7.97;1.90;;;;;;;;;;5070239;28;20792;-64
2022/12/27 08:17:46;;;;;;;8.23;2.40;;;;;;;;;;5058471;28;20047;-65
2022/12/27 08:20:15;;;;;;;10.30;2.60;;;;;;;;;;5089406;28;20441;-65
2022/12/27 08:22:41;;;;;;;12.68;2.60;;;;;;;;;;5090744;28;20702;-65
2022/12/27 08:25:07;;;;;;;11.95;2.95;;;;;;;;;;5075971;28;20039;-63
2022/12/27 08:27:33;;;;;;;11.75;3.03;;;;;;;;;;5095481;28;20035;-64
2022/12/27 08:29:59;;;;;;;10.80;2.78;;;;;;;;;;5097787;28;20077;-63
2022/12/27 08:32:25;;;;;;;9.75;2.13;;;;;;;;;;5079916;28;20048;-65
2022/12/27 08:34:52;;;;;;;19.17;2.25;;;;;;;;;;5088857;28;20048;-63
2022/12/27 08:37:18;;;;;;;8.93;2.35;;;;;;;;;;5068043;28;20760;-61
2022/12/27 08:39:44;;;;;;;13.90;3.83;;;;;;;;;;5083348;28;20132;-60
2022/12/27 08:42:11;;;;;;;12.75;2.05;;;;;;;;;;5094072;28;20039;-63
2022/12/27 08:44:37;;;;;;;14.30;2.92;;;;;;;;;;5094113;28;20561;-63
2022/12/27 08:47:04;;;;;;;8.45;2.17;;;;;;;;;;5090269;28;20048;-63
2022/12/27 08:49:30;;;;;;;12.13;2.80;;;;;;;;;;5067394;28;20913;-64
2022/12/27 08:51:56;;;;;;;11.88;2.30;;;;;;;;;;5071843;28;20401;-63
2022/12/27 08:54:22;;;;;;;9.98;2.17;;;4.50;99.90;;;;;;5075015;28;20036;-65
2022/12/27 08:56:49;;;;;;;15.00;2.50;;;;;;;;;;5071190;28;20043;-64
2022/12/27 08:59:15;;;;;;;8.52;2.33;;;;;;;;;;5072967;28;20442;-64
2022/12/27 09:01:41;;;;;;;7.57;2.25;;;;;;;;;;5088012;28;20120;-63
2022/12/27 09:04:07;;;;;;;13.52;3.78;;;5.20;99.90;;;;;;5089287;28;20048;-60
2022/12/27 09:06:33;;;;;;;12.77;2.78;;;;;;;;;;5072065;28;20134;-64
2022/12/27 09:09:00;;;;;;;12.05;2.75;;;;;;;;;;5080674;28;20040;-66
2022/12/27 09:11:27;;;;;;;9.18;2.60;;;;;;;;;;5071130;28;20127;-64
2022/12/27 09:13:53;;;;;;;11.52;2.60;;;5.50;99.90;;;;;;5067944;28;20165;-62
2022/12/27 09:16:21;;;;;;;13.20;2.67;;;;;;;;;;5085467;28;20046;-63
2022/12/27 09:18:48;;;;;;;6.35;2.65;;;;;;;;;;5075111;28;20139;-64
2022/12/27 09:21:15;;;;;;;10.77;1.95;;;;;;;;;;5088401;28;20052;-63
2022/12/27 09:23:41;;;;;;;9.90;2.15;;;;;;;;;;5094142;28;20032;-64
2022/12/27 09:26:09;;;;;;;8.60;2.30;;;;;;;;;;5077902;28;20043;-63
2022/12/27 09:28:35;;;;;;;11.02;3.45;;;;;;;;;;5078615;28;20054;-64
2022/12/27 09:31:01;;;;;;;11.07;2.20;;;;;;;;;;5095748;28;20085;-65
2022/12/27 09:33:28;;;;;;;9.57;2.80;;;;;;;;;;5094926;28;20073;-62
2022/12/27 09:36:00;;;;;;;13.40;2.75;;;;;;;;;;5078815;28;20044;-64
2022/12/27 09:38:26;;;;;;;8.65;3.30;;;;;;;;;;5076434;28;20132;-63
2022/12/27 09:40:54;;;;;;;13.27;2.88;;;6.30;99.90;;;;;;5064114;28;20543;-64
2022/12/27 09:43:23;;;;;;;12.15;2.88;;;;;;;;;;5081902;28;20044;-64
2022/12/27 09:45:51;;;;;;;10.05;2.40;;;;;;;;;;5084105;28;20123;-65
2022/12/27 09:48:31;;;;;;;7.05;2.58;;;;;;;;;;5089434;28;20552;-64
2022/12/27 09:51:20;;;;;;;8.13;2.67;;;;;;;;;;5066696;28;20047;-63
2022/12/27 09:54:10;;;;;;;9.60;2.67;;;;;;;;;;5074855;28;20048;-64
2022/12/27 09:56:36;;;;;;;5.45;2.55;;;;;;;;;;5067612;28;20093;-63
2022/12/27 09:59:05;;;;;;;11.05;2.65;;;;;;;;;;5082270;28;20039;-62
2022/12/27 10:01:33;;;;;;;9.25;1.85;;;;;;;;;;5087907;28;20036;-64
2022/12/27 10:03:59;;;;;;;10.18;2.58;;;;;;;;;;5082543;28;20071;-64
2022/12/27 10:06:26;;;;;;;12.00;2.47;;;;;;;;;;5082371;28;20119;-63
2022/12/27 10:09:02;;;;;;;8.38;2.30;;;;;;;;;;5084230;28;20065;-65
2022/12/27 10:11:37;;;;;;;6.63;2.25;;;;;;;;;;5066772;28;20048;-67
2022/12/27 10:14:12;;;;;;;8.35;2.28;;;;;;;;;;5065108;28;20047;-62
2022/12/27 10:16:42;;;;;;;10.65;2.67;;;;;;;;;;5070745;28;20050;-63
2022/12/27 10:19:20;;;;;;;10.65;2.70;;;;;;;;;;5081680;28;20043;-64
2022/12/27 10:22:10;;;;;;;10.98;2.38;;;;;;;;;;5061509;28;20075;-64
2022/12/27 10:24:42;;;;;;;12.00;2.53;;;;;;;;;;5072513;28;20574;-65
2022/12/27 10:27:17;;;;;;;13.98;2.15;;;;;;;;;;5072778;28;20413;-65
2022/12/27 10:29:43;;;;;;;10.02;2.60;;;;;;;;;;5087868;28;20036;-68
2022/12/27 10:32:13;;;;;;;7.25;2.17;;;;;;;;;;5086409;28;20054;-64
2022/12/27 10:34:39;;;;;;;6.85;2.10;;;7.60;99.90;;;;;;5069123;28;20064;-65
2022/12/27 10:37:04;;;;;;;10.13;3.30;;;7.60;99.90;;;;;;5088392;28;20509;-64
2022/12/27 10:39:32;;;;;;;8.35;2.65;;;;;;;;;;5090757;28;20063;-65
2022/12/27 10:42:12;;;;;;;10.88;2.42;;;;;;;;;;5072849;28;20498;-63
2022/12/27 10:44:38;;;;;;;8.20;1.95;;;;;;;;;;5078782;28;20051;-65
2022/12/27 10:47:04;;;;;;;9.80;2.05;;;;;;;;;;5090675;28;20044;-66
2022/12/27 10:49:31;;;;;;;10.57;2.55;;;;;;;;;;5099441;28;20043;-66
2022/12/27 10:52:05;;;;;;;10.80;2.63;;;;;;;;;;5091089;28;20040;-64
2022/12/27 10:54:32;;;;;;;12.52;3.03;;;;;;;;;;5075639;28;20047;-64
2022/12/27 10:57:17;;;;;;;11.23;2.45;;;;;;;;;;5092717;28;20047;-65
2022/12/27 10:59:43;;;;;;;7.85;1.67;;;;;;;;;;5084220;28;20039;-63
2022/12/27 11:02:17;;;;;;;9.90;2.63;;;;;;;;;;5073277;28;20071;-65
2022/12/27 11:04:57;;;;;;;11.23;2.60;;;;;;;;;;5088928;28;20391;-68
2022/12/27 11:07:28;;;;;;;6.72;2.55;;;;;;;;;;5071954;28;20075;-63
2022/12/27 11:10:03;;;;;;;9.38;2.42;;;;;;;;;;5084562;28;20047;-65
2022/12/27 11:12:31;;;;;;;9.30;3.25;;;7.50;99.90;;;;;;5087605;28;20036;-65
2022/12/27 11:14:59;;;;;;;13.38;2.75;;;;;;;;;;5088545;28;20047;-65
2022/12/27 11:17:37;;;;;;;10.68;2.60;;;;;;;;;;5088940;28;20036;-66
2022/12/27 11:20:23;;;;;;;12.63;3.15;;;;;;;;;;5081860;28;20039;-68
2022/12/27 11:22:52;;;;;;;10.13;1.88;;;;;;;;;;5055002;28;20047;-62
2022/12/27 11:25:18;;;;;;;9.45;1.90;;;;;;;;;;5074804;28;20044;-64
2022/12/27 11:27:46;;;;;;;10.50;2.75;;;;;;;;;;5080179;28;20052;-63
2022/12/27 11:30:28;;;;;;;6.90;2.35;;;;;;;;;;5081777;28;20764;-64
2022/12/27 11:32:55;;;;;;;7.85;2.33;;;;;;;;;;5090989;28;20052;-61
2022/12/27 11:35:22;;;;;;;13.98;2.15;;;;;;;;;;5100314;28;20062;-66
2022/12/27 11:37:49;;;;;;;12.55;2.05;;;;;;;;;;5080321;28;20043;-64
2022/12/27 11:40:23;;;;;;;10.65;2.53;;;;;;;;;;5090630;28;20040;-64
2022/12/27 11:42:52;;;;;;;5.72;2.00;;;;;;;;;;5090216;28;20047;-64
2022/12/27 11:45:21;;;;;;;8.55;1.98;;;;;;;;;;5083535;28;20040;-64
2022/12/27 11:48:13;;;;;;;8.55;2.05;;;6.70;99.90;;;;;;5075476;28;20133;-65
2022/12/27 11:50:44;;;;;;;12.05;2.97;;;;;;;;;;5078011;28;20097;-63
2022/12/27 11:53:29;;;;;;;9.93;2.40;;;;;;;;;;5066620;28;20032;-65
2022/12/27 11:56:04;;;;;;;9.18;1.90;;;;;;;;;;5077276;28;20437;-64
2022/12/27 11:58:30;;;;;;;;;;;;;;;;;;5094534;28;20545;-65
2022/12/27 12:01:15;;;;;;;11.20;2.50;;;;;;;;;;5074489;28;19995;-65
2022/12/27 12:03:51;;;;;;;12.52;2.22;;;;;;;;;;5070658;28;20055;-64
2022/12/27 12:06:17;;;;;;;11.75;2.72;;;;;;;;;;5097928;28;20136;-63
2022/12/27 12:08:49;;;;;;;11.65;2.33;;;;;;;;;;5097654;28;20248;-64
2022/12/27 12:11:39;;;;;;;11.27;2.30;;;;;;;;;;5070545;28;20043;-65
2022/12/27 12:14:29;;;;;;;8.10;2.80;;;8.00;99.90;;;;;;5093512;28;20039;-65
2022/12/27 12:17:15;;;;;;;9.18;2.40;;;7.80;99.90;;;;;;5093830;28;20035;-62
2022/12/27 12:19:59;;;;;;;12.90;2.70;;;;;;;;;;5082388;28;20097;-63
2022/12/27 12:22:25;;;;;;;13.25;3.05;;;;;;;;;;5080129;28;20058;-64
2022/12/27 12:25:10;;;;;;;8.60;2.30;;;;;;;;;;5100494;28;20039;-65
2022/12/27 12:27:45;;;;;;;9.20;2.30;;;;;;;;;;5097187;28;20042;-64
2022/12/27 12:30:14;;;;;;;14.00;3.42;;;;;;;;;;5080455;28;20469;-62
2022/12/27 12:33:04;;;;;;;8.73;2.63;;;8.00;99.90;;;;;;5097002;28;20089;-64
2022/12/27 12:35:49;;;;;;;7.07;2.65;;;;;;;;;;5080110;28;20082;-65
2022/12/27 12:38:15;;;;;;;5.57;1.80;;;;;;;;;;5083477;28;20036;-64
2022/12/27 12:41:00;;;;;;;12.30;2.97;;;;;;;;;;5074067;28;20299;-65
2022/12/27 12:43:32;;;;;;;7.90;2.22;;;;;;;;;;5063494;28;20078;-62
2022/12/27 12:46:18;;;;;;;12.65;3.70;;;;;;;;;;5071830;28;20173;-63
2022/12/27 12:48:56;;;;;;;11.75;2.72;;;;;;;;;;5054393;28;20048;-63
2022/12/27 12:51:50;;;;;;;10.25;3.40;;;7.70;99.90;;;;;;5067083;28;20051;-63
2022/12/27 12:54:30;;;;;;;10.55;2.83;;;7.80;99.90;;;;;;5074917;28;20051;-63
2022/12/27 12:57:17;;;;;;;8.98;2.92;;;7.80;99.90;;;;;;5073823;28;20052;-66
2022/12/27 13:00:03;;;;;;;12.75;3.35;;;;;;;;;;5062276;28;20055;-63
2022/12/27 13:02:37;;;;;;;13.20;3.10;;;;;;;;;;5070956;28;20044;-63
2022/12/27 13:05:22;;;;;;;11.00;3.50;;;;;;;;;;5088746;28;20044;-62
2022/12/27 13:07:48;;;;;;;20.33;4.70;;;;;;;;;;5071282;28;20051;-64
2022/12/27 13:10:36;;;;;;;9.60;3.85;;;;;;;;;;5089648;28;20769;-64
2022/12/27 13:13:14;;;;;;;11.60;3.30;;;;;;;;;;5071217;28;20051;-65
2022/12/27 13:15:52;;;;;;;14.80;3.92;;;;;;;;;;5091109;28;20039;-66
2022/12/27 13:18:22;;;;;;;12.88;3.85;;;7.70;99.90;;;;;;5090079;28;20039;-64
2022/12/27 13:20:59;;;;;;;11.05;3.33;;;7.80;99.90;;;;;;5073538;28;20609;-64
2022/12/27 13:23:44;;;;;;;9.55;3.42;;;;;;;;;;5084452;28;20505;-67
2022/12/27 13:26:17;;;;;;;18.75;5.07;;;;;;;;;;5070917;28;20092;-65
2022/12/27 13:29:02;;;;;;;11.90;3.90;;;;;;;;;;5068311;28;20051;-66
2022/12/27 13:31:31;;;;;;;10.98;4.18;;;;;;;;;;5088886;28;20051;-65
2022/12/27 13:34:07;;;;;;;12.00;3.80;;;;;;;;;;5067062;28;20544;-64
2022/12/27 13:36:51;;;;;;;9.27;3.90;;;;;;;;;;5065882;28;20074;-65
2022/12/27 13:39:26;;;;;;;10.52;3.92;;;;;;;;;;5065651;28;20113;-64
2022/12/27 13:41:55;;;;;;;13.98;5.05;;;;;;;;;;5066322;28;20071;-64
2022/12/27 13:44:26;;;;;;;16.60;4.93;;;;;;;;;;5067032;28;20119;-64
2022/12/27 13:47:14;;;;;;;15.52;5.18;;;;;;;;;;5080088;28;20405;-63
2022/12/27 13:50:09;;;;;;;13.10;3.83;;;7.50;99.90;;;;;;5096351;28;20035;-64
2022/12/27 13:52:46;;;;;;;11.75;4.30;;;;;;;;;;5093920;28;20040;-66
2022/12/27 13:55:15;;;;;;;12.98;6.45;;;;;;;;;;5073287;28;20786;-65
2022/12/27 13:58:00;;;;;;;11.43;5.28;;;;;;;;;;5078304;28;20048;-65
2022/12/27 14:00:31;;;;;;;12.57;5.40;;;;;;;;;;5066893;28;20044;-64
2022/12/27 14:03:12;;;;;;;13.88;5.25;;;;;;;;;;5080538;28;20413;-65
2022/12/27 14:05:43;;;;;;;15.25;6.03;;;;;;;;;;5083157;28;20133;-63
2022/12/27 14:08:18;;;;;;;14.30;6.70;;;;;;;;;;5078176;28;20048;-64
2022/12/27 14:10:44;;;;;;;14.90;6.53;;;;;;;;;;5060169;28;20574;-64
2022/12/27 14:13:10;;;;;;;23.42;6.57;;;;;;;;;;5063094;28;20094;-66
2022/12/27 14:15:36;;;;;;;13.35;6.47;;;;;;;;;;5060466;28;20147;-64
2022/12/27 14:18:08;;;;;;;14.93;6.07;;;;;;;;;;5068336;28;20043;-63
2022/12/27 14:20:44;;;;;;;14.05;6.82;;;;;;;;;;5073420;28;20424;-65
2022/12/27 14:23:09;;;;;;;;;;;;;;;;;;5091913;28;20098;-64
2022/12/27 14:26:06;;;;;;;10.73;5.63;;;;;;;;;;5079497;28;20335;-63
2022/12/27 14:28:51;;;;;;;12.15;6.55;;;;;;;;;;5088890;28;20048;-64
2022/12/27 14:31:26;;;;;;;15.75;6.20;;;;;;;;;;5067121;28;20589;-64
2022/12/27 14:33:59;;;;;;;14.27;6.57;;;;;;;;;;5084697;28;20055;-65
2022/12/27 14:36:40;;;;;;;19.05;7.35;;;;;;;;;;5063196;28;20041;-65
2022/12/27 14:39:21;;;;;;;16.08;7.15;;;;;;;;;;5080538;28;20406;-64
2022/12/27 14:42:03;;;;;;;17.00;6.95;;;;;;;;;;5066782;28;20058;-65
2022/12/27 14:44:39;;;;;;;16.42;6.88;;;;;;;;;;5079289;28;20086;-65
2022/12/27 14:47:16;;;;;;;14.13;6.93;;;;;;;;;;5081450;28;20048;-66
2022/12/27 14:50:00;;;;;;;14.30;7.30;;;;;;;;;;5076869;28;20048;-65
2022/12/27 14:52:45;;;;;;;15.18;7.13;;;;;;;;;;5085316;28;20083;-66
2022/12/27 14:55:26;;;;;;;13.00;6.93;;;;;;;;;;5082016;28;20047;-66
2022/12/27 14:58:07;;;;;;;21.05;7.18;;;;;;;;;;5078326;28;20036;-65
2022/12/27 15:00:52;;;;;;;13.52;7.85;;;;;;;;;;5068766;28;20379;-66
2022/12/27 15:03:26;;;;;;;15.32;8.00;;;;;;;;;;5082717;28;20063;-66
2022/12/27 15:06:11;;;;;;;21.25;7.95;;;;;;;;;;5075139;28;20837;-66
2022/12/27 15:08:56;;;;;;;18.35;7.95;;;;;;;;;;5084362;28;20150;-66
2022/12/27 15:11:30;;;;;;;15.10;7.32;;;;;;;;;;5066129;28;20043;-66
2022/12/27 15:14:06;;;;;;;12.93;7.53;;;;;;;;;;5086932;28;20117;-66
2022/12/27 15:16:52;;;;;;;17.02;8.00;;;;;;;;;;5089036;28;20053;-66
2022/12/27 15:19:18;;;;;;;11.52;7.32;;;;;;;;;;5025557;28;20048;-66
2022/12/27 15:21:44;;;;;;;14.02;7.32;;;;;;;;;;5082443;28;20047;-64
2022/12/27 15:24:29;;;;;;;24.38;8.40;;;;;;;;;;5083548;28;20245;-65
2022/12/27 15:27:00;;;;;;;11.97;7.67;;;;;;;;;;5096940;28;20040;-63
2022/12/27 15:29:42;;;;;;;19.75;7.72;;;;;;;;;;5083257;28;20330;-65
2022/12/27 15:32:28;;;;;;;14.50;8.48;;;;;;;;;;5084634;28;20051;-65
2022/12/27 15:35:03;;;;;;;17.83;8.55;;;;;;;;;;5084886;28;20048;-64
2022/12/27 15:37:47;;;;;;;18.60;8.65;;;;;;;;;;5075944;28;20127;-65
2022/12/27 15:40:31;;;;;;;16.88;7.82;;;;;;;;;;5080632;28;20129;-64
2022/12/27 15:43:06;;;;;;;18.33;9.43;;;;;;;;;;5073788;28;20147;-63
2022/12/27 15:45:52;;;;;;;18.98;9.32;;;;;;;;;;5081130;28;20051;-65
2022/12/27 15:48:30;;;;;;;21.10;8.93;;;;;;;;;;5071706;28;20506;-65
2022/12/27 15:51:06;;;;;;;15.55;8.82;;;;;;;;;;5084349;28;20773;-64
2022/12/27 15:54:02;;;;;;;19.90;10.05;;;;;;;;;;5068234;28;20126;-65
2022/12/27 15:56:28;;;;;;;;;;;;;;;;;;5072769;28;20044;-66
2022/12/27 15:59:13;;;;;;;19.38;8.73;;;;;;;;;;5065598;28;19931;-64
2022/12/27 16:01:39;;;;;;;14.80;8.60;;;;;;;;;;5082990;28;20036;-63
2022/12/27 16:04:31;;;;;;;17.52;9.43;;;;;;;;;;5081237;28;20682;-64
2022/12/27 16:06:57;;;;;;;18.73;10.23;;;;;;;;;;5069248;28;20035;-64
2022/12/27 16:09:23;;;;;;;26.15;10.05;;;;;;;;;;5072126;28;20056;-64
2022/12/27 16:11:59;;;;;;;17.27;9.68;;;;;;;;;;5068711;28;20040;-65
2022/12/27 16:14:29;;;;;;;16.52;9.35;;;;;;;;;;5084161;28;20115;-63
2022/12/27 16:16:58;;;;;;;17.48;9.90;;;;;;;;;;5069768;28;20039;-62
2022/12/27 16:19:32;;;;;;;22.42;9.77;;;;;;;;;;5082710;28;20052;-64
2022/12/27 16:21:58;;;;;;;17.33;9.48;;;;;;;;;;5084994;28;20616;-64
2022/12/27 16:24:25;;;;;;;18.45;10.77;;;;;;;;;;5095350;28;20921;-65